Richmond's Hourly Summary for Thursday, April 20, 2017
Hour Temp
(f)
RH
(%)
Solar Rad.
(MJ/m2)
Rainfall
(in)
Wind
(mph)
4/20/2017 12:00 AM 71 93 0 0 4.6
4/20/2017 1:00 AM 70 96 0 0 4.19
4/20/2017 2:00 AM 70 97 0 0 3.03
4/20/2017 3:00 AM 69 98 0 0 2.78
4/20/2017 4:00 AM 68 98 0 0 0.06
4/20/2017 5:00 AM 69 99 0 0 1.53
4/20/2017 6:00 AM 69 99 0 0 2.07
4/20/2017 7:00 AM 69 99 0.01 0 1.39
4/20/2017 8:00 AM 69 99 0.1 0 2.91
4/20/2017 9:00 AM 71 90 0.72 0 3.67
4/20/2017 10:00 AM 75 75 1.66 0 5.21
4/20/2017 11:00 AM 78 67 2.17 0 5.58
4/20/2017 12:00 PM 81 61 2.76 0 5.25
4/20/2017 1:00 PM 82 55 3.24 0 5.76
4/20/2017 2:00 PM 83 54 2.72 0 5.39
4/20/2017 3:00 PM 82 58 2.09 0 6.4
4/20/2017 4:00 PM 83 55 2.87 0 6.38
4/20/2017 5:00 PM 83 56 2.23 0 6.71
4/20/2017 6:00 PM 82 59 1.44 0 6.58
4/20/2017 7:00 PM 81 61 0.67 0 5.12
4/20/2017 8:00 PM 78 63 0.19 0 4.48
4/20/2017 9:00 PM 73 78 0 0 2.96
4/20/2017 10:00 PM 71 90 0 0 1.85
4/20/2017 11:00 PM 69 92 0 0 0.19
Data Summary 74 78 22.87 0.00 3.92